Garrattsville, New York
Current Conditions -  °F | °C
As of 9:53 AM on Sunday 23 Nov 2014 (Local Time) from KRME Reporting Station
Overcast Overcast  
Wind Chill: 41°   Ceiling: 3100
Heat Index: 45°   Visibility: 10mi
Dew Point: 40°   Wind: 7mph
Humidity: 82%   Direction: 100°E
Pressure: 30.11"   Gusts: NA
Location:  42.65°N, 75.17°W
Report Text: KRME 231453Z 10006KT 10SM BKN031 OVC065 07/04 A3011 RMK AO2 SLP197 T00720044 51012
Loading
Personal Weather Stations






























Interactive Weather Map New forecast layout! Learn more

10-Day Weather Forecast

Advertisements
Track Severe Weather on mobile